sensor_id;sensor_type;location;lat;lon;timestamp;temperature;humidity
15127;DHT22;7664;52.008;4.748;2022-07-03T00:01:35;18.60;98.80
15127;DHT22;7664;52.008;4.748;2022-07-03T00:04:07;18.50;99.80
15127;DHT22;7664;52.008;4.748;2022-07-03T00:06:35;18.50;99.60
15127;DHT22;7664;52.008;4.748;2022-07-03T00:09:05;18.50;99.90
15127;DHT22;7664;52.008;4.748;2022-07-03T00:11:34;18.40;99.90
15127;DHT22;7664;52.008;4.748;2022-07-03T00:14:03;18.40;99.90
15127;DHT22;7664;52.008;4.748;2022-07-03T00:16:31;18.40;99.90
15127;DHT22;7664;52.008;4.748;2022-07-03T00:18:59;18.30;99.90
15127;DHT22;7664;52.008;4.748;2022-07-03T00:21:31;18.30;99.90
15127;DHT22;7664;52.008;4.748;2022-07-03T00:24:03;18.20;99.90
15127;DHT22;7664;52.008;4.748;2022-07-03T00:26:37;18.20;99.90
15127;DHT22;7664;52.008;4.748;2022-07-03T00:29:06;18.20;99.90
15127;DHT22;7664;52.008;4.748;2022-07-03T00:31:36;18.20;99.90
15127;DHT22;7664;52.008;4.748;2022-07-03T00:34:08;18.20;99.90
15127;DHT22;7664;52.008;4.748;2022-07-03T00:36:39;18.20;99.90
15127;DHT22;7664;52.008;4.748;2022-07-03T00:39:08;18.20;99.90
15127;DHT22;7664;52.008;4.748;2022-07-03T00:41:37;18.20;99.90
15127;DHT22;7664;52.008;4.748;2022-07-03T00:44:06;18.10;99.90
15127;DHT22;7664;52.008;4.748;2022-07-03T00:46:37;18.10;99.90
15127;DHT22;7664;52.008;4.748;2022-07-03T00:49:09;18.10;99.90
15127;DHT22;7664;52.008;4.748;2022-07-03T00:51:40;18.10;99.90
15127;DHT22;7664;52.008;4.748;2022-07-03T00:54:09;18.10;99.90
15127;DHT22;7664;52.008;4.748;2022-07-03T00:56:39;18.10;99.90
15127;DHT22;7664;52.008;4.748;2022-07-03T00:59:09;18.10;99.90
15127;DHT22;7664;52.008;4.748;2022-07-03T01:01:39;18.10;99.90
15127;DHT22;7664;52.008;4.748;2022-07-03T01:04:21;18.10;99.90
15127;DHT22;7664;52.008;4.748;2022-07-03T01:06:57;18.10;99.90
15127;DHT22;7664;52.008;4.748;2022-07-03T01:09:42;18.10;99.90
15127;DHT22;7664;52.008;4.748;2022-07-03T01:12:20;18.10;99.90
15127;DHT22;7664;52.008;4.748;2022-07-03T01:15:03;18.10;99.90
15127;DHT22;7664;52.008;4.748;2022-07-03T01:17:37;18.10;99.90
15127;DHT22;7664;52.008;4.748;2022-07-03T01:20:07;18.10;99.90
15127;DHT22;7664;52.008;4.748;2022-07-03T01:22:37;18.10;99.90
15127;DHT22;7664;52.008;4.748;2022-07-03T01:25:15;18.10;99.90
15127;DHT22;7664;52.008;4.748;2022-07-03T01:27:56;18.10;99.90
15127;DHT22;7664;52.008;4.748;2022-07-03T01:30:29;18.10;99.90
15127;DHT22;7664;52.008;4.748;2022-07-03T01:33:01;18.10;99.90
15127;DHT22;7664;52.008;4.748;2022-07-03T01:35:35;18.10;99.90
15127;DHT22;7664;52.008;4.748;2022-07-03T01:38:08;18.10;99.90
15127;DHT22;7664;52.008;4.748;2022-07-03T01:40:39;18.10;99.90
15127;DHT22;7664;52.008;4.748;2022-07-03T01:43:10;18.10;99.90
15127;DHT22;7664;52.008;4.748;2022-07-03T01:45:42;18.10;99.90
15127;DHT22;7664;52.008;4.748;2022-07-03T01:48:14;18.10;99.90
15127;DHT22;7664;52.008;4.748;2022-07-03T01:50:42;18.00;99.90
15127;DHT22;7664;52.008;4.748;2022-07-03T01:53:11;18.00;99.90
15127;DHT22;7664;52.008;4.748;2022-07-03T01:55:41;18.00;99.90
15127;DHT22;7664;52.008;4.748;2022-07-03T01:58:11;18.00;99.90
15127;DHT22;7664;52.008;4.748;2022-07-03T02:00:47;18.00;99.90
15127;DHT22;7664;52.008;4.748;2022-07-03T02:03:26;18.00;99.90
15127;DHT22;7664;52.008;4.748;2022-07-03T02:06:02;17.90;99.90
15127;DHT22;7664;52.008;4.748;2022-07-03T02:08:44;17.90;99.90
15127;DHT22;7664;52.008;4.748;2022-07-03T02:11:37;17.90;99.90
15127;DHT22;7664;52.008;4.748;2022-07-03T02:14:11;17.90;99.90
15127;DHT22;7664;52.008;4.748;2022-07-03T02:17:03;17.90;99.90
15127;DHT22;7664;52.008;4.748;2022-07-03T02:19:37;17.90;99.90
15127;DHT22;7664;52.008;4.748;2022-07-03T02:22:08;17.80;99.90
15127;DHT22;7664;52.008;4.748;2022-07-03T02:24:42;17.80;99.90
15127;DHT22;7664;52.008;4.748;2022-07-03T02:27:15;17.80;99.90
15127;DHT22;7664;52.008;4.748;2022-07-03T02:29:49;17.80;99.90
15127;DHT22;7664;52.008;4.748;2022-07-03T02:32:21;17.80;99.90
15127;DHT22;7664;52.008;4.748;2022-07-03T02:34:59;17.80;99.90
15127;DHT22;7664;52.008;4.748;2022-07-03T02:37:31;17.80;99.90
15127;DHT22;7664;52.008;4.748;2022-07-03T02:40:04;17.80;99.90
15127;DHT22;7664;52.008;4.748;2022-07-03T02:42:39;17.70;99.90
15127;DHT22;7664;52.008;4.748;2022-07-03T02:45:14;17.70;99.90
15127;DHT22;7664;52.008;4.748;2022-07-03T02:47:47;17.70;99.90
15127;DHT22;7664;52.008;4.748;2022-07-03T02:50:20;17.70;99.90
15127;DHT22;7664;52.008;4.748;2022-07-03T02:52:58;17.70;99.90
15127;DHT22;7664;52.008;4.748;2022-07-03T02:55:40;17.70;99.90
15127;DHT22;7664;52.008;4.748;2022-07-03T02:58:27;17.70;99.90
15127;DHT22;7664;52.008;4.748;2022-07-03T03:01:02;17.60;99.90
15127;DHT22;7664;52.008;4.748;2022-07-03T03:03:31;17.60;99.90
15127;DHT22;7664;52.008;4.748;2022-07-03T03:06:03;17.60;99.90
15127;DHT22;7664;52.008;4.748;2022-07-03T03:08:42;17.60;99.90
15127;DHT22;7664;52.008;4.748;2022-07-03T03:11:21;17.60;99.90
15127;DHT22;7664;52.008;4.748;2022-07-03T03:13:53;17.60;99.90
15127;DHT22;7664;52.008;4.748;2022-07-03T03:16:25;17.70;99.90
15127;DHT22;7664;52.008;4.748;2022-07-03T03:18:55;17.70;99.90
15127;DHT22;7664;52.008;4.748;2022-07-03T03:21:26;17.60;99.90
15127;DHT22;7664;52.008;4.748;2022-07-03T03:23:56;17.60;99.90
15127;DHT22;7664;52.008;4.748;2022-07-03T03:26:26;17.60;99.90
15127;DHT22;7664;52.008;4.748;2022-07-03T03:29:00;17.70;99.90
15127;DHT22;7664;52.008;4.748;2022-07-03T03:31:37;17.70;99.90
15127;DHT22;7664;52.008;4.748;2022-07-03T03:34:06;17.70;99.90
15127;DHT22;7664;52.008;4.748;2022-07-03T03:36:34;17.80;99.90
15127;DHT22;7664;52.008;4.748;2022-07-03T03:39:02;17.70;99.90
15127;DHT22;7664;52.008;4.748;2022-07-03T03:41:31;17.80;99.90
15127;DHT22;7664;52.008;4.748;2022-07-03T03:44:00;17.80;99.90
15127;DHT22;7664;52.008;4.748;2022-07-03T03:46:28;17.80;99.90
15127;DHT22;7664;52.008;4.748;2022-07-03T03:48:59;17.90;99.90
15127;DHT22;7664;52.008;4.748;2022-07-03T03:51:27;17.90;99.90
15127;DHT22;7664;52.008;4.748;2022-07-03T03:53:55;17.80;99.90
15127;DHT22;7664;52.008;4.748;2022-07-03T03:56:24;17.80;99.90
15127;DHT22;7664;52.008;4.748;2022-07-03T03:58:52;17.80;99.90
15127;DHT22;7664;52.008;4.748;2022-07-03T04:01:20;17.80;99.90
15127;DHT22;7664;52.008;4.748;2022-07-03T04:03:50;17.80;99.90
15127;DHT22;7664;52.008;4.748;2022-07-03T04:06:20;17.90;99.90
15127;DHT22;7664;52.008;4.748;2022-07-03T04:08:48;17.90;99.90
15127;DHT22;7664;52.008;4.748;2022-07-03T04:11:16;17.80;99.90
15127;DHT22;7664;52.008;4.748;2022-07-03T04:13:44;17.90;99.90
15127;DHT22;7664;52.008;4.748;2022-07-03T04:16:13;17.90;99.90
15127;DHT22;7664;52.008;4.748;2022-07-03T04:18:41;17.80;99.90
15127;DHT22;7664;52.008;4.748;2022-07-03T04:21:09;17.80;99.90
15127;DHT22;7664;52.008;4.748;2022-07-03T04:23:39;17.90;99.90
15127;DHT22;7664;52.008;4.748;2022-07-03T04:26:07;17.90;99.90
15127;DHT22;7664;52.008;4.748;2022-07-03T04:28:44;17.90;99.90
15127;DHT22;7664;52.008;4.748;2022-07-03T04:31:12;17.90;99.90
15127;DHT22;7664;52.008;4.748;2022-07-03T04:33:40;17.90;99.90
15127;DHT22;7664;52.008;4.748;2022-07-03T04:36:13;17.90;99.90
15127;DHT22;7664;52.008;4.748;2022-07-03T04:38:44;18.00;99.90
15127;DHT22;7664;52.008;4.748;2022-07-03T04:41:13;18.00;99.90
15127;DHT22;7664;52.008;4.748;2022-07-03T04:43:40;18.10;99.90
15127;DHT22;7664;52.008;4.748;2022-07-03T04:46:08;18.20;99.90
15127;DHT22;7664;52.008;4.748;2022-07-03T04:48:38;18.20;99.90
15127;DHT22;7664;52.008;4.748;2022-07-03T04:51:06;18.30;99.90
15127;DHT22;7664;52.008;4.748;2022-07-03T04:53:35;18.30;99.90
15127;DHT22;7664;52.008;4.748;2022-07-03T04:56:05;18.30;99.90
15127;DHT22;7664;52.008;4.748;2022-07-03T04:58:36;18.40;99.90
15127;DHT22;7664;52.008;4.748;2022-07-03T05:01:04;18.40;99.90
15127;DHT22;7664;52.008;4.748;2022-07-03T05:03:33;18.50;99.90
15127;DHT22;7664;52.008;4.748;2022-07-03T05:06:01;18.60;99.90
15127;DHT22;7664;52.008;4.748;2022-07-03T05:08:29;18.60;99.90
15127;DHT22;7664;52.008;4.748;2022-07-03T05:11:05;18.60;99.90
15127;DHT22;7664;52.008;4.748;2022-07-03T05:13:33;18.60;99.90
15127;DHT22;7664;52.008;4.748;2022-07-03T05:16:01;18.60;99.90
15127;DHT22;7664;52.008;4.748;2022-07-03T05:18:29;18.70;99.90
15127;DHT22;7664;52.008;4.748;2022-07-03T05:21:00;18.90;99.90
15127;DHT22;7664;52.008;4.748;2022-07-03T05:23:28;19.20;99.90
15127;DHT22;7664;52.008;4.748;2022-07-03T05:25:56;19.40;99.90
15127;DHT22;7664;52.008;4.748;2022-07-03T05:28:27;19.60;99.90
15127;DHT22;7664;52.008;4.748;2022-07-03T05:30:55;19.80;99.90
15127;DHT22;7664;52.008;4.748;2022-07-03T05:33:23;20.20;99.90
15127;DHT22;7664;52.008;4.748;2022-07-03T05:35:52;20.60;99.90
15127;DHT22;7664;52.008;4.748;2022-07-03T05:38:22;21.00;99.90
15127;DHT22;7664;52.008;4.748;2022-07-03T05:41:05;21.30;99.90
15127;DHT22;7664;52.008;4.748;2022-07-03T05:43:34;21.50;99.90
15127;DHT22;7664;52.008;4.748;2022-07-03T05:46:02;21.50;99.90
15127;DHT22;7664;52.008;4.748;2022-07-03T05:48:31;21.50;99.90
15127;DHT22;7664;52.008;4.748;2022-07-03T05:51:02;21.60;99.90
15127;DHT22;7664;52.008;4.748;2022-07-03T05:53:31;21.70;99.90
15127;DHT22;7664;52.008;4.748;2022-07-03T05:55:59;22.30;99.90
15127;DHT22;7664;52.008;4.748;2022-07-03T05:58:27;22.60;99.90
15127;DHT22;7664;52.008;4.748;2022-07-03T06:00:57;23.50;99.90
15127;DHT22;7664;52.008;4.748;2022-07-03T06:03:25;24.20;99.90
15127;DHT22;7664;52.008;4.748;2022-07-03T06:05:53;24.40;99.90
15127;DHT22;7664;52.008;4.748;2022-07-03T06:08:23;24.30;99.90
15127;DHT22;7664;52.008;4.748;2022-07-03T06:10:51;24.50;99.90
15127;DHT22;7664;52.008;4.748;2022-07-03T06:13:19;24.60;99.90
15127;DHT22;7664;52.008;4.748;2022-07-03T06:15:48;24.90;99.90
15127;DHT22;7664;52.008;4.748;2022-07-03T06:18:18;25.30;99.90
15127;DHT22;7664;52.008;4.748;2022-07-03T06:20:46;25.60;99.90
15127;DHT22;7664;52.008;4.748;2022-07-03T06:23:14;26.30;99.90
15127;DHT22;7664;52.008;4.748;2022-07-03T06:26:02;27.00;99.90
15127;DHT22;7664;52.008;4.748;2022-07-03T06:28:30;27.80;99.90
15127;DHT22;7664;52.008;4.748;2022-07-03T06:30:58;28.40;99.90
15127;DHT22;7664;52.008;4.748;2022-07-03T06:33:31;29.00;99.90
15127;DHT22;7664;52.008;4.748;2022-07-03T06:35:59;29.60;98.00
15127;DHT22;7664;52.008;4.748;2022-07-03T06:38:28;30.10;95.80
15127;DHT22;7664;52.008;4.748;2022-07-03T06:40:57;30.70;95.00
15127;DHT22;7664;52.008;4.748;2022-07-03T06:43:29;31.10;93.70
15127;DHT22;7664;52.008;4.748;2022-07-03T06:46:00;31.80;91.20
15127;DHT22;7664;52.008;4.748;2022-07-03T06:48:28;32.30;89.60
15127;DHT22;7664;52.008;4.748;2022-07-03T06:50:57;32.70;81.40
15127;DHT22;7664;52.008;4.748;2022-07-03T06:53:25;33.00;77.10
15127;DHT22;7664;52.008;4.748;2022-07-03T06:55:53;33.20;75.90
15127;DHT22;7664;52.008;4.748;2022-07-03T06:58:22;33.20;72.10
15127;DHT22;7664;52.008;4.748;2022-07-03T07:00:52;33.30;67.80
15127;DHT22;7664;52.008;4.748;2022-07-03T07:03:20;33.60;68.10
15127;DHT22;7664;52.008;4.748;2022-07-03T07:05:50;34.10;63.00
15127;DHT22;7664;52.008;4.748;2022-07-03T07:08:19;34.30;59.30
15127;DHT22;7664;52.008;4.748;2022-07-03T07:10:47;34.20;55.20
15127;DHT22;7664;52.008;4.748;2022-07-03T07:13:16;34.50;56.00
15127;DHT22;7664;52.008;4.748;2022-07-03T07:15:44;34.40;52.90
15127;DHT22;7664;52.008;4.748;2022-07-03T07:18:12;33.40;48.40
15127;DHT22;7664;52.008;4.748;2022-07-03T07:20:40;32.40;47.70
15127;DHT22;7664;52.008;4.748;2022-07-03T07:23:08;31.40;48.90
15127;DHT22;7664;52.008;4.748;2022-07-03T07:25:41;30.10;48.60
15127;DHT22;7664;52.008;4.748;2022-07-03T07:28:10;29.10;50.20
15127;DHT22;7664;52.008;4.748;2022-07-03T07:30:41;28.30;52.70
15127;DHT22;7664;52.008;4.748;2022-07-03T07:33:09;27.60;53.10
15127;DHT22;7664;52.008;4.748;2022-07-03T07:35:38;27.00;54.10
15127;DHT22;7664;52.008;4.748;2022-07-03T07:38:08;26.50;56.10
15127;DHT22;7664;52.008;4.748;2022-07-03T07:40:36;26.20;57.00
15127;DHT22;7664;52.008;4.748;2022-07-03T07:43:06;26.00;58.60
15127;DHT22;7664;52.008;4.748;2022-07-03T07:45:34;25.80;59.40
15127;DHT22;7664;52.008;4.748;2022-07-03T07:48:03;25.70;61.70
15127;DHT22;7664;52.008;4.748;2022-07-03T07:50:32;25.70;62.10
15127;DHT22;7664;52.008;4.748;2022-07-03T07:53:00;25.50;62.60
15127;DHT22;7664;52.008;4.748;2022-07-03T07:55:28;25.50;63.80
15127;DHT22;7664;52.008;4.748;2022-07-03T07:57:57;25.30;65.40
15127;DHT22;7664;52.008;4.748;2022-07-03T08:00:27;25.40;66.50
15127;DHT22;7664;52.008;4.748;2022-07-03T08:02:55;25.50;66.50
15127;DHT22;7664;52.008;4.748;2022-07-03T08:05:44;25.60;67.00
15127;DHT22;7664;52.008;4.748;2022-07-03T08:08:15;25.80;70.20
15127;DHT22;7664;52.008;4.748;2022-07-03T08:10:46;26.10;71.30
15127;DHT22;7664;52.008;4.748;2022-07-03T08:13:16;26.40;70.20
15127;DHT22;7664;52.008;4.748;2022-07-03T08:15:46;26.80;70.70
15127;DHT22;7664;52.008;4.748;2022-07-03T08:18:14;27.00;71.00
15127;DHT22;7664;52.008;4.748;2022-07-03T08:20:43;27.50;70.80
15127;DHT22;7664;52.008;4.748;2022-07-03T08:23:11;27.60;69.20
15127;DHT22;7664;52.008;4.748;2022-07-03T08:25:39;27.60;67.20
15127;DHT22;7664;52.008;4.748;2022-07-03T08:28:07;27.30;65.80
15127;DHT22;7664;52.008;4.748;2022-07-03T08:30:35;26.90;65.70
15127;DHT22;7664;52.008;4.748;2022-07-03T08:33:04;26.40;66.80
15127;DHT22;7664;52.008;4.748;2022-07-03T08:35:32;26.20;69.40
15127;DHT22;7664;52.008;4.748;2022-07-03T08:38:00;26.20;69.80
15127;DHT22;7664;52.008;4.748;2022-07-03T08:40:28;26.30;71.00
15127;DHT22;7664;52.008;4.748;2022-07-03T08:43:00;26.40;70.00
15127;DHT22;7664;52.008;4.748;2022-07-03T08:45:30;26.50;71.00
15127;DHT22;7664;52.008;4.748;2022-07-03T08:48:07;26.50;69.20
15127;DHT22;7664;52.008;4.748;2022-07-03T08:50:38;26.40;69.60
15127;DHT22;7664;52.008;4.748;2022-07-03T08:53:06;26.50;69.90
15127;DHT22;7664;52.008;4.748;2022-07-03T08:55:34;26.50;70.90
15127;DHT22;7664;52.008;4.748;2022-07-03T08:58:05;26.60;70.20
15127;DHT22;7664;52.008;4.748;2022-07-03T09:00:38;26.80;70.90
15127;DHT22;7664;52.008;4.748;2022-07-03T09:03:09;26.90;70.70
15127;DHT22;7664;52.008;4.748;2022-07-03T09:05:38;26.90;70.10
15127;DHT22;7664;52.008;4.748;2022-07-03T09:08:08;26.90;72.00
15127;DHT22;7664;52.008;4.748;2022-07-03T09:10:40;27.20;71.50
15127;DHT22;7664;52.008;4.748;2022-07-03T09:13:14;27.70;71.40
15127;DHT22;7664;52.008;4.748;2022-07-03T09:15:43;27.80;68.30
15127;DHT22;7664;52.008;4.748;2022-07-03T09:21:02;27.60;64.20
15127;DHT22;7664;52.008;4.748;2022-07-03T09:23:35;27.10;64.40
15127;DHT22;7664;52.008;4.748;2022-07-03T09:26:04;26.80;64.90
15127;DHT22;7664;52.008;4.748;2022-07-03T09:28:44;26.40;66.00
15127;DHT22;7664;52.008;4.748;2022-07-03T09:31:13;26.00;65.30
15127;DHT22;7664;52.008;4.748;2022-07-03T09:33:54;25.60;66.60
15127;DHT22;7664;52.008;4.748;2022-07-03T09:36:40;25.30;67.10
15127;DHT22;7664;52.008;4.748;2022-07-03T09:39:29;25.00;69.70
15127;DHT22;7664;52.008;4.748;2022-07-03T09:42:00;24.80;69.80
15127;DHT22;7664;52.008;4.748;2022-07-03T09:44:33;24.40;69.90
15127;DHT22;7664;52.008;4.748;2022-07-03T09:47:13;23.90;72.90
15127;DHT22;7664;52.008;4.748;2022-07-03T09:49:47;23.70;79.30
15127;DHT22;7664;52.008;4.748;2022-07-03T09:52:34;23.40;84.50
15127;DHT22;7664;52.008;4.748;2022-07-03T09:55:13;23.10;90.70
15127;DHT22;7664;52.008;4.748;2022-07-03T09:57:46;22.70;93.10
15127;DHT22;7664;52.008;4.748;2022-07-03T10:00:26;22.40;94.70
15127;DHT22;7664;52.008;4.748;2022-07-03T10:02:58;22.20;98.30
15127;DHT22;7664;52.008;4.748;2022-07-03T10:05:34;22.00;99.90
15127;DHT22;7664;52.008;4.748;2022-07-03T10:08:04;21.90;99.90
15127;DHT22;7664;52.008;4.748;2022-07-03T10:10:34;21.90;99.90
15127;DHT22;7664;52.008;4.748;2022-07-03T10:13:03;22.10;99.90
15127;DHT22;7664;52.008;4.748;2022-07-03T10:15:33;22.60;99.90
15127;DHT22;7664;52.008;4.748;2022-07-03T10:18:06;23.10;99.90
15127;DHT22;7664;52.008;4.748;2022-07-03T10:20:39;23.50;99.90
15127;DHT22;7664;52.008;4.748;2022-07-03T10:23:07;23.70;99.90
15127;DHT22;7664;52.008;4.748;2022-07-03T10:25:38;24.20;99.90
15127;DHT22;7664;52.008;4.748;2022-07-03T10:28:11;24.40;99.90
15127;DHT22;7664;52.008;4.748;2022-07-03T10:30:40;24.40;99.90
15127;DHT22;7664;52.008;4.748;2022-07-03T10:33:10;24.30;99.90
15127;DHT22;7664;52.008;4.748;2022-07-03T10:35:42;24.30;99.90
15127;DHT22;7664;52.008;4.748;2022-07-03T10:38:23;24.30;99.90
15127;DHT22;7664;52.008;4.748;2022-07-03T10:40:59;24.20;99.90
15127;DHT22;7664;52.008;4.748;2022-07-03T10:43:50;24.00;99.90
15127;DHT22;7664;52.008;4.748;2022-07-03T10:46:36;24.10;99.90
15127;DHT22;7664;52.008;4.748;2022-07-03T10:49:05;24.20;99.90
15127;DHT22;7664;52.008;4.748;2022-07-03T10:51:55;24.40;99.90
15127;DHT22;7664;52.008;4.748;2022-07-03T10:54:25;24.40;99.90
15127;DHT22;7664;52.008;4.748;2022-07-03T10:57:14;24.40;99.90
15127;DHT22;7664;52.008;4.748;2022-07-03T11:00:03;24.60;99.90
15127;DHT22;7664;52.008;4.748;2022-07-03T11:02:37;25.00;99.90
15127;DHT22;7664;52.008;4.748;2022-07-03T11:05:22;25.00;99.90
15127;DHT22;7664;52.008;4.748;2022-07-03T11:08:13;24.80;99.90
15127;DHT22;7664;52.008;4.748;2022-07-03T11:10:42;24.50;99.90
15127;DHT22;7664;52.008;4.748;2022-07-03T11:13:18;24.10;99.90
15127;DHT22;7664;52.008;4.748;2022-07-03T11:15:51;23.90;99.90
15127;DHT22;7664;52.008;4.748;2022-07-03T11:18:31;23.70;99.90
15127;DHT22;7664;52.008;4.748;2022-07-03T11:21:25;23.50;99.90
15127;DHT22;7664;52.008;4.748;2022-07-03T11:24:32;23.20;99.90
15127;DHT22;7664;52.008;4.748;2022-07-03T11:27:21;22.80;99.90
15127;DHT22;7664;52.008;4.748;2022-07-03T11:30:00;22.40;99.90
15127;DHT22;7664;52.008;4.748;2022-07-03T11:32:48;22.20;99.90
15127;DHT22;7664;52.008;4.748;2022-07-03T11:35:52;21.90;99.90
15127;DHT22;7664;52.008;4.748;2022-07-03T11:38:28;21.80;99.90
15127;DHT22;7664;52.008;4.748;2022-07-03T11:40:59;21.70;99.90
15127;DHT22;7664;52.008;4.748;2022-07-03T11:43:32;21.60;99.90
15127;DHT22;7664;52.008;4.748;2022-07-03T11:46:01;21.80;99.90
15127;DHT22;7664;52.008;4.748;2022-07-03T11:48:34;21.90;99.90
15127;DHT22;7664;52.008;4.748;2022-07-03T11:51:04;22.10;99.90
15127;DHT22;7664;52.008;4.748;2022-07-03T11:53:36;22.30;99.90
15127;DHT22;7664;52.008;4.748;2022-07-03T11:56:10;22.70;99.90
15127;DHT22;7664;52.008;4.748;2022-07-03T11:58:43;22.80;99.90
15127;DHT22;7664;52.008;4.748;2022-07-03T12:01:29;22.90;99.90
15127;DHT22;7664;52.008;4.748;2022-07-03T12:04:09;23.00;99.90
15127;DHT22;7664;52.008;4.748;2022-07-03T12:06:41;23.10;99.90
15127;DHT22;7664;52.008;4.748;2022-07-03T12:09:17;23.00;99.90
15127;DHT22;7664;52.008;4.748;2022-07-03T12:11:58;22.90;99.90
15127;DHT22;7664;52.008;4.748;2022-07-03T12:14:38;22.80;99.90
15127;DHT22;7664;52.008;4.748;2022-07-03T12:17:09;22.90;99.90
15127;DHT22;7664;52.008;4.748;2022-07-03T12:19:47;22.90;99.90
15127;DHT22;7664;52.008;4.748;2022-07-03T12:22:26;23.10;99.90
15127;DHT22;7664;52.008;4.748;2022-07-03T12:24:59;23.20;99.90
15127;DHT22;7664;52.008;4.748;2022-07-03T12:27:32;23.20;99.90
15127;DHT22;7664;52.008;4.748;2022-07-03T12:30:22;23.20;99.90
15127;DHT22;7664;52.008;4.748;2022-07-03T12:32:54;23.30;99.90
15127;DHT22;7664;52.008;4.748;2022-07-03T12:35:23;23.50;99.90
15127;DHT22;7664;52.008;4.748;2022-07-03T12:37:52;23.30;99.90
15127;DHT22;7664;52.008;4.748;2022-07-03T12:40:24;23.00;99.90
15127;DHT22;7664;52.008;4.748;2022-07-03T12:42:55;22.80;99.90
15127;DHT22;7664;52.008;4.748;2022-07-03T12:45:26;22.50;99.90
15127;DHT22;7664;52.008;4.748;2022-07-03T12:47:59;22.30;99.90
15127;DHT22;7664;52.008;4.748;2022-07-03T12:50:44;22.10;99.90
15127;DHT22;7664;52.008;4.748;2022-07-03T12:53:28;21.90;99.90
15127;DHT22;7664;52.008;4.748;2022-07-03T12:56:03;21.80;99.90
15127;DHT22;7664;52.008;4.748;2022-07-03T12:58:34;21.80;99.90
15127;DHT22;7664;52.008;4.748;2022-07-03T13:01:27;21.80;99.90
15127;DHT22;7664;52.008;4.748;2022-07-03T13:03:56;21.90;99.90
15127;DHT22;7664;52.008;4.748;2022-07-03T13:06:26;21.90;99.90
15127;DHT22;7664;52.008;4.748;2022-07-03T13:08:55;22.10;99.90
15127;DHT22;7664;52.008;4.748;2022-07-03T13:11:30;22.20;99.90
15127;DHT22;7664;52.008;4.748;2022-07-03T13:14:08;22.40;99.90
15127;DHT22;7664;52.008;4.748;2022-07-03T13:16:44;22.50;99.90
15127;DHT22;7664;52.008;4.748;2022-07-03T13:19:17;22.60;99.90
15127;DHT22;7664;52.008;4.748;2022-07-03T13:21:46;22.40;99.90
15127;DHT22;7664;52.008;4.748;2022-07-03T13:24:15;22.40;99.90
15127;DHT22;7664;52.008;4.748;2022-07-03T13:26:49;22.50;99.90
15127;DHT22;7664;52.008;4.748;2022-07-03T13:29:21;22.60;99.90
15127;DHT22;7664;52.008;4.748;2022-07-03T13:31:52;22.80;99.90
15127;DHT22;7664;52.008;4.748;2022-07-03T13:34:20;22.90;99.90
15127;DHT22;7664;52.008;4.748;2022-07-03T13:36:49;22.90;99.90
15127;DHT22;7664;52.008;4.748;2022-07-03T13:39:18;23.00;99.90
15127;DHT22;7664;52.008;4.748;2022-07-03T13:41:47;23.10;99.90
15127;DHT22;7664;52.008;4.748;2022-07-03T13:44:16;26.30;99.90
15127;DHT22;7664;52.008;4.748;2022-07-03T13:46:46;23.30;99.90
15127;DHT22;7664;52.008;4.748;2022-07-03T13:49:21;23.40;99.90
15127;DHT22;7664;52.008;4.748;2022-07-03T13:51:55;23.40;99.90
15127;DHT22;7664;52.008;4.748;2022-07-03T13:54:26;23.30;99.80
15127;DHT22;7664;52.008;4.748;2022-07-03T13:56:54;23.20;99.90
15127;DHT22;7664;52.008;4.748;2022-07-03T13:59:28;23.30;99.90
15127;DHT22;7664;52.008;4.748;2022-07-03T14:02:01;23.40;99.90
15127;DHT22;7664;52.008;4.748;2022-07-03T14:04:33;23.40;99.80
15127;DHT22;7664;52.008;4.748;2022-07-03T14:07:01;23.40;99.90
15127;DHT22;7664;52.008;4.748;2022-07-03T14:09:32;23.40;99.30
15127;DHT22;7664;52.008;4.748;2022-07-03T14:12:01;23.40;99.40
15127;DHT22;7664;52.008;4.748;2022-07-03T14:14:29;23.40;99.10
15127;DHT22;7664;52.008;4.748;2022-07-03T14:17:09;23.40;99.00
15127;DHT22;7664;52.008;4.748;2022-07-03T14:19:37;23.30;98.80
15127;DHT22;7664;52.008;4.748;2022-07-03T14:22:05;23.30;99.50
15127;DHT22;7664;52.008;4.748;2022-07-03T14:24:33;23.30;99.30
15127;DHT22;7664;52.008;4.748;2022-07-03T14:27:01;23.30;98.70
15127;DHT22;7664;52.008;4.748;2022-07-03T14:29:49;23.30;99.10
15127;DHT22;7664;52.008;4.748;2022-07-03T14:32:59;23.30;98.90
15127;DHT22;7664;52.008;4.748;2022-07-03T14:35:27;23.30;97.70
15127;DHT22;7664;52.008;4.748;2022-07-03T14:37:58;23.20;98.70
15127;DHT22;7664;52.008;4.748;2022-07-03T14:40:26;23.30;98.60
15127;DHT22;7664;52.008;4.748;2022-07-03T14:43:00;23.30;98.10
15127;DHT22;7664;52.008;4.748;2022-07-03T14:45:28;23.10;96.70
15127;DHT22;7664;52.008;4.748;2022-07-03T14:48:10;23.00;96.90
15127;DHT22;7664;52.008;4.748;2022-07-03T14:50:39;23.00;96.30
15127;DHT22;7664;52.008;4.748;2022-07-03T14:53:16;22.90;96.00
15127;DHT22;7664;52.008;4.748;2022-07-03T14:55:44;22.70;96.00
15127;DHT22;7664;52.008;4.748;2022-07-03T14:58:15;22.60;95.90
15127;DHT22;7664;52.008;4.748;2022-07-03T15:00:48;22.70;95.60
15127;DHT22;7664;52.008;4.748;2022-07-03T15:03:27;22.70;94.60
15127;DHT22;7664;52.008;4.748;2022-07-03T15:06:01;22.60;92.90
15127;DHT22;7664;52.008;4.748;2022-07-03T15:08:47;22.50;93.80
15127;DHT22;7664;52.008;4.748;2022-07-03T15:11:22;22.70;94.70
15127;DHT22;7664;52.008;4.748;2022-07-03T15:14:08;22.80;94.90
15127;DHT22;7664;52.008;4.748;2022-07-03T15:16:37;23.10;94.90
15127;DHT22;7664;52.008;4.748;2022-07-03T15:19:08;23.20;94.60
15127;DHT22;7664;52.008;4.748;2022-07-03T15:21:47;23.20;94.30
15127;DHT22;7664;52.008;4.748;2022-07-03T15:24:17;23.00;93.70
15127;DHT22;7664;52.008;4.748;2022-07-03T15:26:51;22.90;92.90
15127;DHT22;7664;52.008;4.748;2022-07-03T15:29:20;22.80;93.60
15127;DHT22;7664;52.008;4.748;2022-07-03T15:31:54;22.80;94.20
15127;DHT22;7664;52.008;4.748;2022-07-03T15:34:23;22.80;93.90
15127;DHT22;7664;52.008;4.748;2022-07-03T15:39:54;22.80;92.80
15127;DHT22;7664;52.008;4.748;2022-07-03T15:42:45;22.60;92.80
15127;DHT22;7664;52.008;4.748;2022-07-03T15:45:32;22.60;93.60
15127;DHT22;7664;52.008;4.748;2022-07-03T15:48:13;22.80;93.40
15127;DHT22;7664;52.008;4.748;2022-07-03T15:50:57;22.90;93.00
15127;DHT22;7664;52.008;4.748;2022-07-03T15:53:30;22.90;92.20
15127;DHT22;7664;52.008;4.748;2022-07-03T15:56:05;22.90;91.90
15127;DHT22;7664;52.008;4.748;2022-07-03T15:58:38;22.90;92.10
15127;DHT22;7664;52.008;4.748;2022-07-03T16:01:09;22.80;91.90
15127;DHT22;7664;52.008;4.748;2022-07-03T16:04:01;22.70;92.80
15127;DHT22;7664;52.008;4.748;2022-07-03T16:06:43;22.80;92.60
15127;DHT22;7664;52.008;4.748;2022-07-03T16:09:12;22.90;92.70
15127;DHT22;7664;52.008;4.748;2022-07-03T16:11:41;23.00;92.70
15127;DHT22;7664;52.008;4.748;2022-07-03T16:14:11;23.00;92.10
15127;DHT22;7664;52.008;4.748;2022-07-03T16:16:49;23.00;91.90
15127;DHT22;7664;52.008;4.748;2022-07-03T16:19:18;23.00;91.70
15127;DHT22;7664;52.008;4.748;2022-07-03T16:22:00;22.80;92.10
15127;DHT22;7664;52.008;4.748;2022-07-03T16:24:37;22.60;91.90
15127;DHT22;7664;52.008;4.748;2022-07-03T16:27:15;22.60;92.50